Accueil
METAR-TAF:

METAR-TAF

Aéroports :

Wattisham, Angleterre

latitude: 52-07N, longitude: 000-58E, altitude: 87 m

Observation

Le bulletin a été fait il y a 41 minutes, à 20:50 UTC
Vent 6 kt de nord/nord-ouest
Température 2°C
Humidité 87%
Pression 1019 hPa
Visibilité 10 km ou plus
pas de nuages en-dessous de 1500 mètres et pas de cumulonimbus.

METAR: EGUW 262050Z 33006KT CAVOK 02/M00 Q1019 BLU NOSIG

Heure: 22:31 (21:31 UTC)

Prévision

Le bulletin a été fait il y a 1 heure et 36 minutes, à 19:55 UTC
Prévision valable du 26 à 21 UTC au 27 à 03 UTC
Vent 8 kt de nord/nord-ouest
Visibilité 10 km ou plus
Nuages fragmentés à une hauteur de 2500 ft

TAF: EGUW 261955Z 2621/2703 34008KT 9999 BKN025

Observations et prévisions météorologiques de plus de 4000 aéroports (messages METAR et TAF).

Les stations disponibles sont représentées par des disques jaunes et rouges sur la carte.

Passer la souris dessus pour voir le nom de la station.

Cliquer dessus pour voir les observations et prévisions météorologiques.

Pour changer de carte: cliquez sur les boutons verts avec une croix noire pour zoomer, sur le bouton vert avec un tiret pour effectuer un zoom arrière, ou sur les flèches vertes pour les cartes adjacentes.


METAR-TAF: